sensor_id;sensor_type;location;lat;lon;timestamp;temperature;humidity
7196;DHT22;3639;51.308;5.624;2022-12-05T00:00:15;2.40;99.90
7196;DHT22;3639;51.308;5.624;2022-12-05T00:02:41;2.40;99.90
7196;DHT22;3639;51.308;5.624;2022-12-05T00:05:09;2.50;99.90
7196;DHT22;3639;51.308;5.624;2022-12-05T00:10:57;2.40;99.90
7196;DHT22;3639;51.308;5.624;2022-12-05T00:13:23;2.40;99.90
7196;DHT22;3639;51.308;5.624;2022-12-05T00:15:49;2.40;99.90
7196;DHT22;3639;51.308;5.624;2022-12-05T00:18:14;2.40;99.90
7196;DHT22;3639;51.308;5.624;2022-12-05T00:20:47;2.40;99.90
7196;DHT22;3639;51.308;5.624;2022-12-05T00:23:13;2.40;99.90
7196;DHT22;3639;51.308;5.624;2022-12-05T00:25:38;2.40;99.90
7196;DHT22;3639;51.308;5.624;2022-12-05T00:28:04;2.40;99.90
7196;DHT22;3639;51.308;5.624;2022-12-05T00:30:30;2.40;99.90
7196;DHT22;3639;51.308;5.624;2022-12-05T00:32:56;2.40;99.90
7196;DHT22;3639;51.308;5.624;2022-12-05T00:35:22;2.40;99.90
7196;DHT22;3639;51.308;5.624;2022-12-05T00:37:48;2.40;99.90
7196;DHT22;3639;51.308;5.624;2022-12-05T00:40:13;2.40;99.90
7196;DHT22;3639;51.308;5.624;2022-12-05T00:42:39;2.40;99.90
7196;DHT22;3639;51.308;5.624;2022-12-05T00:45:05;2.40;99.90
7196;DHT22;3639;51.308;5.624;2022-12-05T00:47:34;2.40;99.90
7196;DHT22;3639;51.308;5.624;2022-12-05T00:50:00;2.50;99.90
7196;DHT22;3639;51.308;5.624;2022-12-05T00:52:26;2.50;99.90
7196;DHT22;3639;51.308;5.624;2022-12-05T00:54:51;2.40;99.90
7196;DHT22;3639;51.308;5.624;2022-12-05T00:57:17;2.50;99.90
7196;DHT22;3639;51.308;5.624;2022-12-05T00:59:43;2.50;99.90
7196;DHT22;3639;51.308;5.624;2022-12-05T01:02:09;2.50;99.90
7196;DHT22;3639;51.308;5.624;2022-12-05T01:04:34;2.50;99.90
7196;DHT22;3639;51.308;5.624;2022-12-05T01:07:00;2.50;99.90
7196;DHT22;3639;51.308;5.624;2022-12-05T01:09:26;2.50;99.90
7196;DHT22;3639;51.308;5.624;2022-12-05T01:11:52;2.50;99.90
7196;DHT22;3639;51.308;5.624;2022-12-05T01:14:21;2.50;99.90
7196;DHT22;3639;51.308;5.624;2022-12-05T01:16:49;2.50;99.90
7196;DHT22;3639;51.308;5.624;2022-12-05T01:19:23;2.50;99.90
7196;DHT22;3639;51.308;5.624;2022-12-05T01:21:50;2.50;99.90
7196;DHT22;3639;51.308;5.624;2022-12-05T01:40:19;2.50;99.90
7196;DHT22;3639;51.308;5.624;2022-12-05T01:42:45;2.50;99.90
7196;DHT22;3639;51.308;5.624;2022-12-05T01:45:21;2.50;99.90
7196;DHT22;3639;51.308;5.624;2022-12-05T01:54:35;2.50;99.90
7196;DHT22;3639;51.308;5.624;2022-12-05T01:57:04;2.50;99.90
7196;DHT22;3639;51.308;5.624;2022-12-05T01:59:34;2.50;99.90
7196;DHT22;3639;51.308;5.624;2022-12-05T02:02:02;2.50;99.90
7196;DHT22;3639;51.308;5.624;2022-12-05T02:04:28;2.50;99.90
7196;DHT22;3639;51.308;5.624;2022-12-05T02:06:54;2.50;99.90
7196;DHT22;3639;51.308;5.624;2022-12-05T02:09:20;2.50;99.90
7196;DHT22;3639;51.308;5.624;2022-12-05T02:11:54;2.50;99.90
7196;DHT22;3639;51.308;5.624;2022-12-05T02:14:31;2.50;99.90
7196;DHT22;3639;51.308;5.624;2022-12-05T02:36:22;2.50;99.90
7196;DHT22;3639;51.308;5.624;2022-12-05T02:39:03;2.50;99.90
7196;DHT22;3639;51.308;5.624;2022-12-05T02:41:40;2.50;99.90
7196;DHT22;3639;51.308;5.624;2022-12-05T02:44:14;2.50;99.90
7196;DHT22;3639;51.308;5.624;2022-12-05T02:46:43;2.50;99.90
7196;DHT22;3639;51.308;5.624;2022-12-05T02:49:16;2.50;99.90
7196;DHT22;3639;51.308;5.624;2022-12-05T02:51:48;2.50;99.90
7196;DHT22;3639;51.308;5.624;2022-12-05T02:54:19;2.50;99.90
7196;DHT22;3639;51.308;5.624;2022-12-05T02:56:48;2.60;99.90
7196;DHT22;3639;51.308;5.624;2022-12-05T02:59:15;2.50;99.90
7196;DHT22;3639;51.308;5.624;2022-12-05T03:01:43;2.50;99.90
7196;DHT22;3639;51.308;5.624;2022-12-05T03:04:11;2.60;99.90
7196;DHT22;3639;51.308;5.624;2022-12-05T03:07:02;2.60;99.90
7196;DHT22;3639;51.308;5.624;2022-12-05T03:12:19;2.50;99.90
7196;DHT22;3639;51.308;5.624;2022-12-05T03:14:55;2.60;99.90
7196;DHT22;3639;51.308;5.624;2022-12-05T03:17:24;2.60;99.90
7196;DHT22;3639;51.308;5.624;2022-12-05T03:22:29;2.60;99.90
7196;DHT22;3639;51.308;5.624;2022-12-05T03:24:56;2.60;99.90
7196;DHT22;3639;51.308;5.624;2022-12-05T03:30:03;2.60;99.90
7196;DHT22;3639;51.308;5.624;2022-12-05T03:32:39;2.60;99.90
7196;DHT22;3639;51.308;5.624;2022-12-05T03:37:52;2.50;99.90
7196;DHT22;3639;51.308;5.624;2022-12-05T03:43:00;2.60;99.90
7196;DHT22;3639;51.308;5.624;2022-12-05T03:48:37;2.60;99.90
7196;DHT22;3639;51.308;5.624;2022-12-05T03:51:06;2.60;99.90
7196;DHT22;3639;51.308;5.624;2022-12-05T03:53:47;2.60;99.90
7196;DHT22;3639;51.308;5.624;2022-12-05T03:56:22;2.60;99.90
7196;DHT22;3639;51.308;5.624;2022-12-05T03:59:03;2.60;99.90
7196;DHT22;3639;51.308;5.624;2022-12-05T04:01:30;2.60;99.90
7196;DHT22;3639;51.308;5.624;2022-12-05T04:04:02;2.70;99.90
7196;DHT22;3639;51.308;5.624;2022-12-05T04:06:35;2.70;99.90
7196;DHT22;3639;51.308;5.624;2022-12-05T04:09:04;2.70;99.90
7196;DHT22;3639;51.308;5.624;2022-12-05T04:11:33;2.70;99.90
7196;DHT22;3639;51.308;5.624;2022-12-05T04:14:06;2.70;99.90
7196;DHT22;3639;51.308;5.624;2022-12-05T04:16:39;2.70;99.90
7196;DHT22;3639;51.308;5.624;2022-12-05T04:22:21;2.70;99.90
7196;DHT22;3639;51.308;5.624;2022-12-05T04:24:49;2.70;99.90
7196;DHT22;3639;51.308;5.624;2022-12-05T04:27:58;2.70;99.90
7196;DHT22;3639;51.308;5.624;2022-12-05T04:30:26;2.70;99.90
7196;DHT22;3639;51.308;5.624;2022-12-05T04:33:07;2.80;99.90
7196;DHT22;3639;51.308;5.624;2022-12-05T04:35:42;2.80;99.90
7196;DHT22;3639;51.308;5.624;2022-12-05T04:38:23;2.80;99.90
7196;DHT22;3639;51.308;5.624;2022-12-05T04:41:07;2.70;99.90
7196;DHT22;3639;51.308;5.624;2022-12-05T04:43:38;2.80;99.90
7196;DHT22;3639;51.308;5.624;2022-12-05T04:46:08;2.80;99.90
7196;DHT22;3639;51.308;5.624;2022-12-05T04:48:37;2.80;99.90
7196;DHT22;3639;51.308;5.624;2022-12-05T04:51:06;2.80;99.90
7196;DHT22;3639;51.308;5.624;2022-12-05T04:53:34;2.80;99.90
7196;DHT22;3639;51.308;5.624;2022-12-05T04:56:02;2.80;99.90
7196;DHT22;3639;51.308;5.624;2022-12-05T04:58:31;2.80;99.90
7196;DHT22;3639;51.308;5.624;2022-12-05T05:01:10;2.80;99.90
7196;DHT22;3639;51.308;5.624;2022-12-05T05:03:41;2.90;99.90
7196;DHT22;3639;51.308;5.624;2022-12-05T05:06:10;2.80;99.90
7196;DHT22;3639;51.308;5.624;2022-12-05T05:08:36;2.80;99.90
7196;DHT22;3639;51.308;5.624;2022-12-05T05:11:15;2.80;99.90
7196;DHT22;3639;51.308;5.624;2022-12-05T05:13:41;2.80;99.90
7196;DHT22;3639;51.308;5.624;2022-12-05T05:16:11;2.90;99.90
7196;DHT22;3639;51.308;5.624;2022-12-05T05:18:37;2.80;99.90
7196;DHT22;3639;51.308;5.624;2022-12-05T05:21:03;2.80;99.90
7196;DHT22;3639;51.308;5.624;2022-12-05T05:23:28;2.90;99.90
7196;DHT22;3639;51.308;5.624;2022-12-05T05:25:55;2.90;99.90
7196;DHT22;3639;51.308;5.624;2022-12-05T05:28:21;2.90;99.90
7196;DHT22;3639;51.308;5.624;2022-12-05T05:30:47;2.90;99.90
7196;DHT22;3639;51.308;5.624;2022-12-05T05:33:14;2.90;99.90
7196;DHT22;3639;51.308;5.624;2022-12-05T05:35:40;2.90;99.90
7196;DHT22;3639;51.308;5.624;2022-12-05T05:38:05;2.90;99.90
7196;DHT22;3639;51.308;5.624;2022-12-05T05:40:35;2.90;99.90
7196;DHT22;3639;51.308;5.624;2022-12-05T05:43:01;2.90;99.90
7196;DHT22;3639;51.308;5.624;2022-12-05T05:45:27;2.90;99.90
7196;DHT22;3639;51.308;5.624;2022-12-05T05:47:52;2.90;99.90
7196;DHT22;3639;51.308;5.624;2022-12-05T05:50:18;2.90;99.90
7196;DHT22;3639;51.308;5.624;2022-12-05T05:52:44;2.90;99.90
7196;DHT22;3639;51.308;5.624;2022-12-05T05:55:09;2.80;99.90
7196;DHT22;3639;51.308;5.624;2022-12-05T05:57:35;2.80;99.90
7196;DHT22;3639;51.308;5.624;2022-12-05T06:00:04;2.80;99.90
7196;DHT22;3639;51.308;5.624;2022-12-05T06:02:32;2.70;99.90
7196;DHT22;3639;51.308;5.624;2022-12-05T06:04:57;2.70;99.90
7196;DHT22;3639;51.308;5.624;2022-12-05T06:07:23;2.70;99.90
7196;DHT22;3639;51.308;5.624;2022-12-05T06:09:49;2.70;99.90
7196;DHT22;3639;51.308;5.624;2022-12-05T06:12:14;2.70;99.90
7196;DHT22;3639;51.308;5.624;2022-12-05T06:14:40;2.70;99.90
7196;DHT22;3639;51.308;5.624;2022-12-05T06:17:05;2.70;99.90
7196;DHT22;3639;51.308;5.624;2022-12-05T06:19:31;2.70;99.90
7196;DHT22;3639;51.308;5.624;2022-12-05T06:21:57;2.70;99.90
7196;DHT22;3639;51.308;5.624;2022-12-05T06:24:22;2.70;99.90
7196;DHT22;3639;51.308;5.624;2022-12-05T06:26:48;2.70;99.90
7196;DHT22;3639;51.308;5.624;2022-12-05T06:29:14;2.70;99.90
7196;DHT22;3639;51.308;5.624;2022-12-05T06:31:40;2.70;99.90
7196;DHT22;3639;51.308;5.624;2022-12-05T06:34:06;2.70;99.90
7196;DHT22;3639;51.308;5.624;2022-12-05T06:36:32;2.60;99.90
7196;DHT22;3639;51.308;5.624;2022-12-05T06:38:58;2.70;99.90
7196;DHT22;3639;51.308;5.624;2022-12-05T06:41:24;2.70;99.90
7196;DHT22;3639;51.308;5.624;2022-12-05T06:43:53;2.70;99.90
7196;DHT22;3639;51.308;5.624;2022-12-05T06:46:19;2.70;99.90
7196;DHT22;3639;51.308;5.624;2022-12-05T06:48:45;2.70;99.90
7196;DHT22;3639;51.308;5.624;2022-12-05T06:51:14;2.70;99.90
7196;DHT22;3639;51.308;5.624;2022-12-05T06:53:41;2.70;99.90
7196;DHT22;3639;51.308;5.624;2022-12-05T06:56:10;2.70;99.90
7196;DHT22;3639;51.308;5.624;2022-12-05T06:58:36;2.70;99.90
7196;DHT22;3639;51.308;5.624;2022-12-05T07:01:02;2.70;99.90
7196;DHT22;3639;51.308;5.624;2022-12-05T07:03:50;2.70;99.90
7196;DHT22;3639;51.308;5.624;2022-12-05T07:06:16;2.70;99.90
7196;DHT22;3639;51.308;5.624;2022-12-05T07:08:42;2.70;99.90
7196;DHT22;3639;51.308;5.624;2022-12-05T07:11:07;2.80;99.90
7196;DHT22;3639;51.308;5.624;2022-12-05T07:13:33;2.70;99.90
7196;DHT22;3639;51.308;5.624;2022-12-05T07:15:59;2.70;99.90
7196;DHT22;3639;51.308;5.624;2022-12-05T07:18:25;2.70;99.90
7196;DHT22;3639;51.308;5.624;2022-12-05T07:21:17;2.70;99.90
7196;DHT22;3639;51.308;5.624;2022-12-05T07:23:45;2.80;99.90
7196;DHT22;3639;51.308;5.624;2022-12-05T07:26:14;2.70;99.90
7196;DHT22;3639;51.308;5.624;2022-12-05T07:28:40;2.70;99.90
7196;DHT22;3639;51.308;5.624;2022-12-05T07:31:08;2.80;99.90
7196;DHT22;3639;51.308;5.624;2022-12-05T07:33:34;2.70;99.90
7196;DHT22;3639;51.308;5.624;2022-12-05T07:36:08;2.70;99.90
7196;DHT22;3639;51.308;5.624;2022-12-05T07:38:34;2.70;99.90
7196;DHT22;3639;51.308;5.624;2022-12-05T07:41:07;2.70;99.90
7196;DHT22;3639;51.308;5.624;2022-12-05T07:43:33;2.70;99.90
7196;DHT22;3639;51.308;5.624;2022-12-05T07:46:04;2.80;99.90
7196;DHT22;3639;51.308;5.624;2022-12-05T07:48:30;2.70;99.90
7196;DHT22;3639;51.308;5.624;2022-12-05T07:51:01;2.80;99.90
7196;DHT22;3639;51.308;5.624;2022-12-05T07:53:27;2.80;99.90
7196;DHT22;3639;51.308;5.624;2022-12-05T07:55:53;2.80;99.90
7196;DHT22;3639;51.308;5.624;2022-12-05T07:58:19;2.80;99.90
7196;DHT22;3639;51.308;5.624;2022-12-05T08:00:44;2.80;99.90
7196;DHT22;3639;51.308;5.624;2022-12-05T08:03:10;2.80;99.90
7196;DHT22;3639;51.308;5.624;2022-12-05T08:05:36;2.80;99.90
7196;DHT22;3639;51.308;5.624;2022-12-05T08:08:02;2.80;99.90
7196;DHT22;3639;51.308;5.624;2022-12-05T08:10:28;2.80;99.90
7196;DHT22;3639;51.308;5.624;2022-12-05T08:12:54;2.80;99.90
7196;DHT22;3639;51.308;5.624;2022-12-05T08:15:19;2.80;99.90
7196;DHT22;3639;51.308;5.624;2022-12-05T08:17:45;2.80;99.90
7196;DHT22;3639;51.308;5.624;2022-12-05T08:20:11;2.80;99.90
7196;DHT22;3639;51.308;5.624;2022-12-05T08:22:37;2.80;99.90
7196;DHT22;3639;51.308;5.624;2022-12-05T08:25:03;2.90;99.90
7196;DHT22;3639;51.308;5.624;2022-12-05T08:27:29;2.90;99.90
7196;DHT22;3639;51.308;5.624;2022-12-05T08:29:54;2.90;99.90
7196;DHT22;3639;51.308;5.624;2022-12-05T08:32:20;2.90;99.90
7196;DHT22;3639;51.308;5.624;2022-12-05T08:34:45;2.90;99.90
7196;DHT22;3639;51.308;5.624;2022-12-05T08:37:11;2.90;99.90
7196;DHT22;3639;51.308;5.624;2022-12-05T08:39:37;3.00;99.90
7196;DHT22;3639;51.308;5.624;2022-12-05T08:42:02;3.00;99.90
7196;DHT22;3639;51.308;5.624;2022-12-05T08:44:28;3.00;99.90
7196;DHT22;3639;51.308;5.624;2022-12-05T08:46:54;3.00;99.90
7196;DHT22;3639;51.308;5.624;2022-12-05T08:49:19;3.00;99.90
7196;DHT22;3639;51.308;5.624;2022-12-05T08:51:45;3.00;99.90
7196;DHT22;3639;51.308;5.624;2022-12-05T08:54:11;2.90;99.90
7196;DHT22;3639;51.308;5.624;2022-12-05T08:56:37;2.90;99.90
7196;DHT22;3639;51.308;5.624;2022-12-05T08:59:03;3.00;99.90
7196;DHT22;3639;51.308;5.624;2022-12-05T09:01:29;2.90;99.90
7196;DHT22;3639;51.308;5.624;2022-12-05T09:04:00;2.90;99.90
7196;DHT22;3639;51.308;5.624;2022-12-05T09:06:27;2.90;99.90
7196;DHT22;3639;51.308;5.624;2022-12-05T09:08:56;2.90;99.90
7196;DHT22;3639;51.308;5.624;2022-12-05T09:11:24;2.90;99.90
7196;DHT22;3639;51.308;5.624;2022-12-05T09:13:52;2.90;99.90
7196;DHT22;3639;51.308;5.624;2022-12-05T09:16:24;2.90;99.90
7196;DHT22;3639;51.308;5.624;2022-12-05T09:18:51;2.80;99.90
7196;DHT22;3639;51.308;5.624;2022-12-05T09:21:22;2.80;99.90
7196;DHT22;3639;51.308;5.624;2022-12-05T09:23:48;2.80;99.90
7196;DHT22;3639;51.308;5.624;2022-12-05T09:26:17;2.90;99.90
7196;DHT22;3639;51.308;5.624;2022-12-05T09:28:43;2.90;99.90
7196;DHT22;3639;51.308;5.624;2022-12-05T09:31:13;2.90;99.90
7196;DHT22;3639;51.308;5.624;2022-12-05T09:33:39;2.90;99.90
7196;DHT22;3639;51.308;5.624;2022-12-05T09:36:13;2.80;99.90
7196;DHT22;3639;51.308;5.624;2022-12-05T09:38:38;2.90;99.90
7196;DHT22;3639;51.308;5.624;2022-12-05T09:41:11;2.90;99.90
7196;DHT22;3639;51.308;5.624;2022-12-05T09:43:46;2.90;99.90
7196;DHT22;3639;51.308;5.624;2022-12-05T09:49:08;2.90;99.90
7196;DHT22;3639;51.308;5.624;2022-12-05T09:51:39;2.90;99.90
7196;DHT22;3639;51.308;5.624;2022-12-05T09:54:09;2.90;99.90
7196;DHT22;3639;51.308;5.624;2022-12-05T09:56:35;2.90;99.90
7196;DHT22;3639;51.308;5.624;2022-12-05T09:59:01;2.90;99.90
7196;DHT22;3639;51.308;5.624;2022-12-05T10:04:16;2.90;99.90
7196;DHT22;3639;51.308;5.624;2022-12-05T10:09:47;2.90;99.90
7196;DHT22;3639;51.308;5.624;2022-12-05T10:15:30;2.90;99.90
7196;DHT22;3639;51.308;5.624;2022-12-05T10:18:01;2.90;99.90
7196;DHT22;3639;51.308;5.624;2022-12-05T10:20:35;2.90;99.90
7196;DHT22;3639;51.308;5.624;2022-12-05T10:23:10;2.90;99.90
7196;DHT22;3639;51.308;5.624;2022-12-05T10:25:39;2.80;99.90
7196;DHT22;3639;51.308;5.624;2022-12-05T10:28:14;2.80;99.90
7196;DHT22;3639;51.308;5.624;2022-12-05T10:30:44;2.80;99.90
7196;DHT22;3639;51.308;5.624;2022-12-05T10:33:19;2.80;99.90
7196;DHT22;3639;51.308;5.624;2022-12-05T10:35:45;2.90;99.90
7196;DHT22;3639;51.308;5.624;2022-12-05T10:38:26;3.00;99.90
7196;DHT22;3639;51.308;5.624;2022-12-05T10:40:54;3.00;99.90
7196;DHT22;3639;51.308;5.624;2022-12-05T10:43:28;2.90;99.90
7196;DHT22;3639;51.308;5.624;2022-12-05T10:45:54;2.90;99.90
7196;DHT22;3639;51.308;5.624;2022-12-05T10:48:20;3.00;99.90
7196;DHT22;3639;51.308;5.624;2022-12-05T10:50:52;3.00;99.90
7196;DHT22;3639;51.308;5.624;2022-12-05T10:53:35;3.10;99.90
7196;DHT22;3639;51.308;5.624;2022-12-05T10:56:02;3.10;99.90
7196;DHT22;3639;51.308;5.624;2022-12-05T10:58:28;3.10;99.90
7196;DHT22;3639;51.308;5.624;2022-12-05T11:01:09;3.20;99.90
7196;DHT22;3639;51.308;5.624;2022-12-05T11:03:42;3.20;99.90
7196;DHT22;3639;51.308;5.624;2022-12-05T11:08:58;3.30;99.90
7196;DHT22;3639;51.308;5.624;2022-12-05T11:11:28;3.30;99.90
7196;DHT22;3639;51.308;5.624;2022-12-05T11:13:56;3.40;99.90
7196;DHT22;3639;51.308;5.624;2022-12-05T11:16:34;3.30;99.90
7196;DHT22;3639;51.308;5.624;2022-12-05T11:21:47;3.30;99.90
7196;DHT22;3639;51.308;5.624;2022-12-05T11:24:20;3.30;99.90
7196;DHT22;3639;51.308;5.624;2022-12-05T11:26:48;3.30;99.90
7196;DHT22;3639;51.308;5.624;2022-12-05T11:29:35;3.20;99.90
7196;DHT22;3639;51.308;5.624;2022-12-05T11:32:17;3.10;99.90
7196;DHT22;3639;51.308;5.624;2022-12-05T11:34:51;3.10;99.90
7196;DHT22;3639;51.308;5.624;2022-12-05T11:37:23;3.20;99.90
7196;DHT22;3639;51.308;5.624;2022-12-05T11:39:51;3.20;99.90
7196;DHT22;3639;51.308;5.624;2022-12-05T11:45:36;3.40;99.90
7196;DHT22;3639;51.308;5.624;2022-12-05T11:48:25;3.30;99.90
7196;DHT22;3639;51.308;5.624;2022-12-05T11:51:06;3.30;99.90
7196;DHT22;3639;51.308;5.624;2022-12-05T11:56:36;3.20;99.90
7196;DHT22;3639;51.308;5.624;2022-12-05T12:02:07;3.30;99.90
7196;DHT22;3639;51.308;5.624;2022-12-05T12:10:16;3.50;99.90
7196;DHT22;3639;51.308;5.624;2022-12-05T12:18:16;3.40;99.90
7196;DHT22;3639;51.308;5.624;2022-12-05T12:21:19;3.30;99.90
7196;DHT22;3639;51.308;5.624;2022-12-05T12:32:12;3.40;99.90
7196;DHT22;3639;51.308;5.624;2022-12-05T12:37:52;3.30;99.90
7196;DHT22;3639;51.308;5.624;2022-12-05T12:40:41;3.30;99.90
7196;DHT22;3639;51.308;5.624;2022-12-05T12:46:10;3.30;99.90
7196;DHT22;3639;51.308;5.624;2022-12-05T12:51:18;3.30;99.90
7196;DHT22;3639;51.308;5.624;2022-12-05T13:02:18;3.40;99.90
7196;DHT22;3639;51.308;5.624;2022-12-05T13:05:00;3.30;99.90
7196;DHT22;3639;51.308;5.624;2022-12-05T13:07:47;3.40;99.90
7196;DHT22;3639;51.308;5.624;2022-12-05T13:12:49;3.30;99.90
7196;DHT22;3639;51.308;5.624;2022-12-05T13:15:19;3.30;99.90
7196;DHT22;3639;51.308;5.624;2022-12-05T13:17:48;3.40;99.90
7196;DHT22;3639;51.308;5.624;2022-12-05T13:20:20;3.30;99.90
7196;DHT22;3639;51.308;5.624;2022-12-05T13:22:49;3.30;99.90
7196;DHT22;3639;51.308;5.624;2022-12-05T13:25:18;3.40;99.90
7196;DHT22;3639;51.308;5.624;2022-12-05T13:30:48;3.40;99.90
7196;DHT22;3639;51.308;5.624;2022-12-05T13:33:42;3.40;99.90
7196;DHT22;3639;51.308;5.624;2022-12-05T13:36:11;3.40;99.90
7196;DHT22;3639;51.308;5.624;2022-12-05T13:41:56;3.40;99.90
7196;DHT22;3639;51.308;5.624;2022-12-05T13:44:44;3.30;99.90
7196;DHT22;3639;51.308;5.624;2022-12-05T13:49:57;3.40;99.90
7196;DHT22;3639;51.308;5.624;2022-12-05T13:52:29;3.40;99.90
7196;DHT22;3639;51.308;5.624;2022-12-05T14:07:44;3.40;99.90
7196;DHT22;3639;51.308;5.624;2022-12-05T14:13:00;3.40;99.90
7196;DHT22;3639;51.308;5.624;2022-12-05T14:18:05;3.50;99.90
7196;DHT22;3639;51.308;5.624;2022-12-05T14:20:55;3.60;99.90
7196;DHT22;3639;51.308;5.624;2022-12-05T14:26:17;3.60;99.90
7196;DHT22;3639;51.308;5.624;2022-12-05T14:31:51;3.60;99.90
7196;DHT22;3639;51.308;5.624;2022-12-05T14:34:26;3.50;99.90
7196;DHT22;3639;51.308;5.624;2022-12-05T14:39:51;3.50;99.90
7196;DHT22;3639;51.308;5.624;2022-12-05T14:42:49;3.60;99.90
7196;DHT22;3639;51.308;5.624;2022-12-05T14:45:37;3.60;99.90
7196;DHT22;3639;51.308;5.624;2022-12-05T14:50:46;3.60;99.90
7196;DHT22;3639;51.308;5.624;2022-12-05T14:53:31;3.70;99.90
7196;DHT22;3639;51.308;5.624;2022-12-05T14:58:45;3.70;99.90
7196;DHT22;3639;51.308;5.624;2022-12-05T15:01:26;3.60;99.90
7196;DHT22;3639;51.308;5.624;2022-12-05T15:11:56;3.70;99.90
7196;DHT22;3639;51.308;5.624;2022-12-05T15:14:27;3.70;99.90
7196;DHT22;3639;51.308;5.624;2022-12-05T15:16:55;3.70;99.90
7196;DHT22;3639;51.308;5.624;2022-12-05T15:19:28;3.70;99.90
7196;DHT22;3639;51.308;5.624;2022-12-05T15:21:57;3.70;99.90
7196;DHT22;3639;51.308;5.624;2022-12-05T15:24:24;3.60;99.90
7196;DHT22;3639;51.308;5.624;2022-12-05T15:27:02;3.70;99.90
7196;DHT22;3639;51.308;5.624;2022-12-05T15:29:29;3.60;99.90
7196;DHT22;3639;51.308;5.624;2022-12-05T15:31:58;3.60;99.90
7196;DHT22;3639;51.308;5.624;2022-12-05T15:37:39;3.60;99.90
7196;DHT22;3639;51.308;5.624;2022-12-05T15:40:12;3.60;99.90
7196;DHT22;3639;51.308;5.624;2022-12-05T15:42:46;3.60;99.90
7196;DHT22;3639;51.308;5.624;2022-12-05T15:47:46;3.60;99.90
7196;DHT22;3639;51.308;5.624;2022-12-05T15:53:03;3.70;99.90
7196;DHT22;3639;51.308;5.624;2022-12-05T15:55:32;3.70;99.90
7196;DHT22;3639;51.308;5.624;2022-12-05T16:00:46;3.70;99.90
7196;DHT22;3639;51.308;5.624;2022-12-05T16:03:37;3.60;99.90
7196;DHT22;3639;51.308;5.624;2022-12-05T16:06:10;3.60;99.90
7196;DHT22;3639;51.308;5.624;2022-12-05T16:08:45;3.60;99.90
7196;DHT22;3639;51.308;5.624;2022-12-05T16:11:13;3.60;99.90
7196;DHT22;3639;51.308;5.624;2022-12-05T16:13:43;3.60;99.90
7196;DHT22;3639;51.308;5.624;2022-12-05T16:16:16;3.60;99.90
7196;DHT22;3639;51.308;5.624;2022-12-05T16:18:58;3.60;99.90
7196;DHT22;3639;51.308;5.624;2022-12-05T16:21:35;3.60;99.90
7196;DHT22;3639;51.308;5.624;2022-12-05T16:24:17;3.60;99.90
7196;DHT22;3639;51.308;5.624;2022-12-05T16:26:43;3.60;99.90
7196;DHT22;3639;51.308;5.624;2022-12-05T16:29:26;3.60;99.90
7196;DHT22;3639;51.308;5.624;2022-12-05T16:31:57;3.70;99.90
7196;DHT22;3639;51.308;5.624;2022-12-05T16:34:24;3.80;99.90
7196;DHT22;3639;51.308;5.624;2022-12-05T16:36:52;3.70;99.90
7196;DHT22;3639;51.308;5.624;2022-12-05T16:39:19;3.80;99.90
7196;DHT22;3639;51.308;5.624;2022-12-05T16:41:46;3.70;99.90
7196;DHT22;3639;51.308;5.624;2022-12-05T16:44:53;3.70;99.90
7196;DHT22;3639;51.308;5.624;2022-12-05T16:47:23;3.70;99.90
7196;DHT22;3639;51.308;5.624;2022-12-05T16:49:49;3.70;99.90
7196;DHT22;3639;51.308;5.624;2022-12-05T16:52:15;3.70;99.90
7196;DHT22;3639;51.308;5.624;2022-12-05T16:54:45;3.70;99.90
7196;DHT22;3639;51.308;5.624;2022-12-05T16:57:13;3.70;99.90
7196;DHT22;3639;51.308;5.624;2022-12-05T16:59:40;3.70;99.90
7196;DHT22;3639;51.308;5.624;2022-12-05T17:02:12;3.70;99.90
7196;DHT22;3639;51.308;5.624;2022-12-05T17:04:38;3.70;99.90
7196;DHT22;3639;51.308;5.624;2022-12-05T17:07:04;3.80;99.90
7196;DHT22;3639;51.308;5.624;2022-12-05T17:09:29;3.80;99.90
7196;DHT22;3639;51.308;5.624;2022-12-05T17:12:11;3.80;99.90
7196;DHT22;3639;51.308;5.624;2022-12-05T17:14:38;3.70;99.90
7196;DHT22;3639;51.308;5.624;2022-12-05T17:17:10;3.70;99.90
7196;DHT22;3639;51.308;5.624;2022-12-05T17:19:36;3.70;99.90
7196;DHT22;3639;51.308;5.624;2022-12-05T17:22:04;3.70;99.90
7196;DHT22;3639;51.308;5.624;2022-12-05T17:24:30;3.80;99.90
7196;DHT22;3639;51.308;5.624;2022-12-05T17:26:56;3.80;99.90
7196;DHT22;3639;51.308;5.624;2022-12-05T17:29:23;3.80;99.90
7196;DHT22;3639;51.308;5.624;2022-12-05T17:31:48;3.70;99.90
7196;DHT22;3639;51.308;5.624;2022-12-05T17:34:16;3.70;99.90
7196;DHT22;3639;51.308;5.624;2022-12-05T17:36:45;3.70;99.90
7196;DHT22;3639;51.308;5.624;2022-12-05T17:39:11;3.80;99.90
7196;DHT22;3639;51.308;5.624;2022-12-05T17:41:37;3.70;99.90
7196;DHT22;3639;51.308;5.624;2022-12-05T17:44:04;3.70;99.90
7196;DHT22;3639;51.308;5.624;2022-12-05T17:46:30;3.80;99.90
7196;DHT22;3639;51.308;5.624;2022-12-05T17:48:55;3.80;99.90
7196;DHT22;3639;51.308;5.624;2022-12-05T17:51:22;3.80;99.90
7196;DHT22;3639;51.308;5.624;2022-12-05T17:53:48;3.80;99.90
7196;DHT22;3639;51.308;5.624;2022-12-05T17:56:14;3.80;99.90
7196;DHT22;3639;51.308;5.624;2022-12-05T17:58:40;3.80;99.90
7196;DHT22;3639;51.308;5.624;2022-12-05T18:01:08;3.80;99.90
7196;DHT22;3639;51.308;5.624;2022-12-05T18:03:35;3.70;99.90
7196;DHT22;3639;51.308;5.624;2022-12-05T18:06:03;3.70;99.90
7196;DHT22;3639;51.308;5.624;2022-12-05T18:08:30;3.80;99.90
7196;DHT22;3639;51.308;5.624;2022-12-05T18:10:56;3.80;99.90
7196;DHT22;3639;51.308;5.624;2022-12-05T18:13:22;3.80;99.90
7196;DHT22;3639;51.308;5.624;2022-12-05T18:15:48;3.80;99.90
7196;DHT22;3639;51.308;5.624;2022-12-05T18:18:19;3.80;99.90
7196;DHT22;3639;51.308;5.624;2022-12-05T18:20:45;3.80;99.90
7196;DHT22;3639;51.308;5.624;2022-12-05T18:23:11;3.80;99.90
7196;DHT22;3639;51.308;5.624;2022-12-05T18:25:37;3.80;99.90
7196;DHT22;3639;51.308;5.624;2022-12-05T18:28:03;3.80;99.90
7196;DHT22;3639;51.308;5.624;2022-12-05T18:30:29;3.80;99.90
7196;DHT22;3639;51.308;5.624;2022-12-05T18:32:55;3.80;99.90
7196;DHT22;3639;51.308;5.624;2022-12-05T18:35:20;3.90;99.90
7196;DHT22;3639;51.308;5.624;2022-12-05T18:38:05;3.90;99.90
7196;DHT22;3639;51.308;5.624;2022-12-05T18:40:30;3.90;99.90
7196;DHT22;3639;51.308;5.624;2022-12-05T18:42:56;3.80;99.90
7196;DHT22;3639;51.308;5.624;2022-12-05T18:45:21;3.90;99.90
7196;DHT22;3639;51.308;5.624;2022-12-05T18:47:47;3.90;99.90
7196;DHT22;3639;51.308;5.624;2022-12-05T18:50:13;3.90;99.90
7196;DHT22;3639;51.308;5.624;2022-12-05T18:52:39;3.90;99.90
7196;DHT22;3639;51.308;5.624;2022-12-05T18:55:05;3.90;99.90
7196;DHT22;3639;51.308;5.624;2022-12-05T18:57:31;4.00;99.90
7196;DHT22;3639;51.308;5.624;2022-12-05T18:59:56;4.00;99.90
7196;DHT22;3639;51.308;5.624;2022-12-05T19:02:22;3.90;99.90
7196;DHT22;3639;51.308;5.624;2022-12-05T19:04:49;4.00;99.90
7196;DHT22;3639;51.308;5.624;2022-12-05T19:07:14;4.10;99.90
7196;DHT22;3639;51.308;5.624;2022-12-05T19:09:40;4.10;99.90
7196;DHT22;3639;51.308;5.624;2022-12-05T19:12:06;4.00;99.90
7196;DHT22;3639;51.308;5.624;2022-12-05T19:14:31;4.00;99.90
7196;DHT22;3639;51.308;5.624;2022-12-05T19:16:58;4.00;99.90
7196;DHT22;3639;51.308;5.624;2022-12-05T19:19:24;4.10;99.90
7196;DHT22;3639;51.308;5.624;2022-12-05T19:21:49;4.00;99.90
7196;DHT22;3639;51.308;5.624;2022-12-05T19:24:16;4.10;99.90
7196;DHT22;3639;51.308;5.624;2022-12-05T19:26:43;4.10;99.90
7196;DHT22;3639;51.308;5.624;2022-12-05T19:29:13;4.10;99.90
7196;DHT22;3639;51.308;5.624;2022-12-05T19:31:39;4.00;99.90
7196;DHT22;3639;51.308;5.624;2022-12-05T19:34:06;4.10;99.90
7196;DHT22;3639;51.308;5.624;2022-12-05T19:36:34;4.10;99.90
7196;DHT22;3639;51.308;5.624;2022-12-05T19:39:06;4.10;99.90
7196;DHT22;3639;51.308;5.624;2022-12-05T19:41:33;4.10;99.90
7196;DHT22;3639;51.308;5.624;2022-12-05T19:43:59;4.10;99.90